Time;durP1;ratioP1;P1;durP2;ratioP2;P2;SDS_P1;SDS_P2;PMS_P1;PMS_P2;Temp;Humidity;BMP_temperature;BMP_pressure;BME280_temperature;BME280_humidity;BME280_pressure;Samples;Min_cycle;Max_cycle;Signal;HPM_P1;HPM_P2
2022/03/30 00:01:38;;;;;;;31.63;17.67;;;3.60;99.90;;;;;;5056540;28;20136;-85
2022/03/30 00:04:04;;;;;;;33.38;16.10;;;3.60;99.90;;;;;;5039374;28;20043;-86
2022/03/30 00:06:30;;;;;;;34.38;16.85;;;3.60;99.90;;;;;;5051501;28;20057;-85
2022/03/30 00:08:55;;;;;;;34.45;16.15;;;3.50;99.90;;;;;;5052378;28;20041;-85
2022/03/30 00:11:22;;;;;;;31.15;16.02;;;3.50;99.90;;;;;;5055061;28;20033;-85
2022/03/30 00:13:51;;;;;;;29.38;15.15;;;3.50;99.90;;;;;;5040927;28;20097;-85
2022/03/30 00:16:18;;;;;;;33.85;16.58;;;3.50;99.90;;;;;;5054617;28;20068;-85
2022/03/30 00:18:44;;;;;;;38.38;18.15;;;3.60;99.90;;;;;;5042221;28;20063;-84
2022/03/30 00:21:09;;;;;;;34.28;16.98;;;3.60;99.90;;;;;;5039063;28;20087;-85
2022/03/30 00:23:35;;;;;;;37.40;17.45;;;3.60;99.90;;;;;;5041645;28;20468;-85
2022/03/30 00:26:01;;;;;;;38.30;18.10;;;3.60;99.90;;;;;;5039947;28;20101;-86
2022/03/30 00:28:28;;;;;;;27.95;15.98;;;3.60;99.90;;;;;;5040729;28;20036;-85
2022/03/30 00:30:57;;;;;;;34.50;16.45;;;3.60;99.90;;;;;;5055784;28;20063;-85
2022/03/30 00:33:24;;;;;;;35.20;17.67;;;3.70;99.90;;;;;;5054144;28;20041;-85
2022/03/30 00:35:49;;;;;;;36.97;17.05;;;3.70;99.90;;;;;;5039473;28;20562;-85
2022/03/30 00:38:15;;;;;;;41.20;17.35;;;3.70;99.90;;;;;;5039666;28;20107;-86
2022/03/30 00:40:41;;;;;;;35.17;17.02;;;3.80;99.90;;;;;;5056051;28;20107;-86
2022/03/30 00:43:06;;;;;;;29.92;15.93;;;3.90;99.90;;;;;;5035944;28;20515;-85
2022/03/30 00:45:32;;;;;;;34.20;17.13;;;3.90;99.90;;;;;;5034360;28;20032;-86
2022/03/30 00:47:58;;;;;;;35.03;17.58;;;3.90;99.90;;;;;;5053997;28;20093;-86
2022/03/30 00:50:24;;;;;;;32.28;15.98;;;4.00;99.90;;;;;;5055336;28;20036;-86
2022/03/30 00:52:54;;;;;;;32.25;16.48;;;4.00;99.90;;;;;;5043069;28;20036;-86
2022/03/30 00:55:20;;;;;;;30.48;17.13;;;4.10;99.90;;;;;;5057016;28;20048;-85
2022/03/30 00:57:47;;;;;;;34.40;16.98;;;4.10;99.90;;;;;;5039728;28;20028;-86
2022/03/30 01:00:16;;;;;;;38.05;17.65;;;4.10;99.90;;;;;;5038846;28;20094;-85
2022/03/30 01:02:47;;;;;;;35.67;17.58;;;4.10;99.90;;;;;;5040660;28;20049;-86
2022/03/30 01:05:14;;;;;;;33.50;17.15;;;4.20;99.90;;;;;;5037794;28;20150;-85
2022/03/30 01:07:44;;;;;;;39.33;16.70;;;4.30;99.90;;;;;;5047081;28;20484;-86
2022/03/30 01:10:10;;;;;;;34.83;17.38;;;4.30;99.90;;;;;;5054359;28;20403;-85
2022/03/30 01:12:39;;;;;;;36.20;17.05;;;4.30;99.90;;;;;;5040434;28;20557;-85
2022/03/30 01:15:06;;;;;;;33.13;16.98;;;4.40;99.90;;;;;;5052241;28;20078;-85
2022/03/30 01:17:33;;;;;;;36.13;16.50;;;4.40;99.90;;;;;;5051220;28;20368;-86
2022/03/30 01:20:02;;;;;;;32.25;17.35;;;4.50;99.90;;;;;;5055861;28;20029;-86
2022/03/30 01:22:28;;;;;;;33.35;16.98;;;4.60;99.90;;;;;;5031741;28;20037;-86
2022/03/30 01:24:54;;;;;;;32.55;16.90;;;4.50;99.90;;;;;;5037945;28;20101;-85
2022/03/30 01:27:19;;;;;;;36.78;16.63;;;4.60;99.90;;;;;;5037884;28;20048;-85
2022/03/30 01:32:36;;;;;;;31.92;16.13;;;4.70;99.90;;;;;;5051442;28;20052;-86
2022/03/30 01:35:10;;;;;;;34.38;15.05;;;4.70;99.90;;;;;;5052300;28;20044;-85
2022/03/30 01:37:39;;;;;;;33.85;15.85;;;4.70;99.90;;;;;;5038373;28;20127;-85
2022/03/30 01:40:06;;;;;;;31.63;15.70;;;4.80;99.90;;;;;;5038585;28;20410;-85
2022/03/30 01:42:35;;;;;;;33.67;16.15;;;4.80;99.90;;;;;;5040028;28;20156;-86
2022/03/30 01:45:02;;;;;;;32.80;15.73;;;4.80;99.90;;;;;;5051393;28;20043;-86
2022/03/30 01:47:28;;;;;;;33.75;15.88;;;4.80;99.90;;;;;;5037123;28;20151;-85
2022/03/30 01:49:54;;;;;;;28.83;16.40;;;4.80;99.90;;;;;;5036811;28;20033;-86
2022/03/30 01:52:19;;;;;;;36.72;15.48;;;4.80;99.90;;;;;;5034658;28;20044;-86
2022/03/30 01:54:45;;;;;;;34.47;16.10;;;4.90;99.90;;;;;;5039470;28;20042;-86
2022/03/30 01:57:15;;;;;;;34.22;15.82;;;4.80;99.90;;;;;;5043194;28;20036;-85
2022/03/30 01:59:44;;;;;;;42.67;17.05;;;4.90;99.90;;;;;;5040514;28;20481;-85
2022/03/30 02:02:13;;;;;;;30.90;15.90;;;4.90;99.90;;;;;;5058411;28;20040;-86
2022/03/30 02:04:39;;;;;;;34.10;15.75;;;5.00;99.90;;;;;;5054442;28;20036;-86
2022/03/30 02:07:09;;;;;;;35.45;16.45;;;5.00;99.90;;;;;;5052889;28;20123;-86
2022/03/30 02:09:35;;;;;;;29.65;14.82;;;5.00;99.90;;;;;;5039944;28;20079;-86
2022/03/30 02:12:00;;;;;;;31.55;16.45;;;5.10;99.90;;;;;;5054286;28;20088;-85
2022/03/30 02:14:27;;;;;;;30.52;14.93;;;5.10;99.90;;;;;;5058164;28;20044;-85
2022/03/30 02:16:53;;;;;;;30.10;16.02;;;5.10;99.90;;;;;;5040035;28;20670;-86
2022/03/30 02:19:18;;;;;;;31.73;15.63;;;5.10;99.90;;;;;;5056061;28;20488;-85
2022/03/30 02:21:44;;;;;;;30.42;15.60;;;5.10;99.90;;;;;;5054353;28;20029;-86
2022/03/30 02:24:10;;;;;;;27.42;14.57;;;5.10;99.90;;;;;;5054277;28;20098;-85
2022/03/30 02:26:40;;;;;;;32.47;15.70;;;5.10;99.90;;;;;;5054982;28;20409;-86
2022/03/30 02:29:11;;;;;;;31.92;16.55;;;5.10;99.90;;;;;;5042793;28;20119;-85
2022/03/30 02:31:37;;;;;;;29.48;15.52;;;5.10;99.90;;;;;;5042379;28;20084;-86
2022/03/30 02:34:03;;;;;;;32.78;16.05;;;5.10;99.90;;;;;;5042536;28;20081;-85
2022/03/30 02:36:29;;;;;;;28.63;14.65;;;5.10;99.90;;;;;;5039447;28;20036;-86
2022/03/30 02:38:57;;;;;;;34.20;15.85;;;5.10;99.90;;;;;;5042732;28;20028;-84
2022/03/30 02:41:23;;;;;;;34.35;17.17;;;5.00;99.90;;;;;;5058769;28;20064;-85
2022/03/30 02:43:56;;;;;;;29.75;15.20;;;5.10;99.90;;;;;;5057409;28;20356;-86
2022/03/30 02:46:34;;;;;;;32.00;15.50;;;5.00;99.90;;;;;;5044008;28;20044;-86
2022/03/30 02:49:00;;;;;;;28.35;14.15;;;5.10;99.90;;;;;;5039096;28;20124;-86
2022/03/30 02:51:27;;;;;;;31.98;15.70;;;5.10;99.90;;;;;;5058315;28;20036;-84
2022/03/30 02:53:54;;;;;;;30.92;15.38;;;5.10;99.90;;;;;;5043971;28;20036;-85
2022/03/30 02:56:20;;;;;;;31.58;15.32;;;5.10;99.90;;;;;;5057766;28;20037;-84
2022/03/30 02:58:45;;;;;;;28.95;14.75;;;5.10;99.90;;;;;;5042632;28;20033;-85
2022/03/30 03:01:18;;;;;;;30.77;14.90;;;5.10;99.90;;;;;;5041851;28;20045;-85
2022/03/30 03:03:47;;;;;;;29.50;15.30;;;5.10;99.90;;;;;;5055487;28;20506;-85
2022/03/30 03:06:13;;;;;;;31.48;15.13;;;5.20;99.90;;;;;;5039242;28;20067;-84
2022/03/30 03:08:39;;;;;;;29.40;16.08;;;5.10;99.90;;;;;;5056617;28;20131;-85
2022/03/30 03:11:07;;;;;;;37.47;16.45;;;5.20;99.90;;;;;;5058706;28;20316;-85
2022/03/30 03:13:33;;;;;;;33.30;15.80;;;5.10;99.90;;;;;;5055048;28;20036;-85
2022/03/30 03:16:02;;;;;;;29.13;16.02;;;5.20;99.90;;;;;;5054951;28;20390;-85
2022/03/30 03:18:31;;;;;;;33.00;16.67;;;5.20;99.90;;;;;;5040131;28;20040;-85
2022/03/30 03:20:57;;;;;;;30.92;15.43;;;5.20;99.90;;;;;;5041542;28;20341;-86
2022/03/30 03:23:26;;;;;;;34.83;16.25;;;5.10;99.90;;;;;;5040405;28;20114;-85
2022/03/30 03:25:53;;;;;;;29.83;15.77;;;5.20;99.90;;;;;;5057784;28;20039;-86
2022/03/30 03:28:19;;;;;;;34.35;16.95;;;5.20;99.90;;;;;;5038785;28;20052;-85
2022/03/30 03:30:48;;;;;;;30.98;15.60;;;5.20;99.90;;;;;;5053909;28;20040;-85
2022/03/30 03:33:15;;;;;;;34.45;15.98;;;5.20;99.90;;;;;;5040567;28;20055;-85
2022/03/30 03:35:41;;;;;;;37.78;17.52;;;5.20;99.90;;;;;;5038277;28;20110;-85
2022/03/30 03:38:13;;;;;;;32.10;15.35;;;5.30;99.90;;;;;;5041089;28;20028;-85
2022/03/30 03:40:50;;;;;;;;;;;5.30;99.90;;;;;;5054154;28;20424;-85
2022/03/30 03:43:16;;;;;;;25.33;14.35;;;5.30;99.90;;;;;;5040573;28;19919;-85
2022/03/30 03:45:51;;;;;;;24.83;12.55;;;5.30;99.90;;;;;;5039463;28;20032;-84
2022/03/30 03:48:17;;;;;;;;;;;5.40;99.90;;;;;;5073661;28;20033;-85
2022/03/30 03:50:43;;;;;;;18.83;10.05;;;5.30;99.90;;;;;;5055704;28;19923;-85
2022/03/30 03:53:11;;;;;;;12.13;5.72;;;5.40;99.90;;;;;;5042241;28;20319;-85
2022/03/30 03:55:37;;;;;;;7.78;3.80;;;5.40;99.90;;;;;;5054514;28;20484;-85
2022/03/30 03:58:09;;;;;;;6.45;2.95;;;5.50;99.90;;;;;;5047585;28;20127;-85
2022/03/30 04:00:37;;;;;;;3.05;2.10;;;5.50;99.90;;;;;;5065778;28;20181;-85
2022/03/30 04:03:03;;;;;;;4.00;1.80;;;5.50;99.90;;;;;;5056688;28;20040;-85
2022/03/30 04:05:34;;;;;;;3.40;1.50;;;5.50;99.90;;;;;;5037705;28;20044;-87
2022/03/30 04:08:00;;;;;;;2.58;1.40;;;5.50;99.90;;;;;;5041700;28;20033;-86
2022/03/30 04:10:29;;;;;;;1.77;1.30;;;5.50;99.90;;;;;;5041693;28;20397;-86
2022/03/30 04:12:57;;;;;;;2.15;0.90;;;5.40;99.90;;;;;;5053774;28;20036;-85
2022/03/30 04:15:23;;;;;;;1.60;1.05;;;5.40;99.90;;;;;;5069829;28;20432;-85
2022/03/30 04:17:49;;;;;;;3.50;1.23;;;5.40;99.90;;;;;;5052446;28;20033;-85
2022/03/30 04:20:18;;;;;;;1.58;0.98;;;5.30;99.90;;;;;;5046732;28;20115;-86
2022/03/30 04:22:47;;;;;;;2.60;0.98;;;5.30;99.90;;;;;;5039344;28;20575;-85
2022/03/30 04:25:18;;;;;;;1.70;0.82;;;5.30;99.90;;;;;;5041283;28;20044;-85
2022/03/30 04:27:55;;;;;;;2.25;0.70;;;5.30;99.90;;;;;;5065366;28;20051;-85
2022/03/30 04:30:22;;;;;;;1.10;0.73;;;5.30;99.90;;;;;;5040220;28;20041;-86
2022/03/30 04:32:47;;;;;;;1.80;0.80;;;5.20;99.90;;;;;;5054846;28;20094;-85
2022/03/30 04:35:17;;;;;;;1.33;0.90;;;5.20;99.90;;;;;;5053457;28;20384;-85
2022/03/30 04:37:42;;;;;;;0.70;0.65;;;5.10;99.90;;;;;;5052374;28;20464;-85
2022/03/30 04:40:09;;;;;;;2.08;0.77;;;5.10;99.90;;;;;;5040315;28;20359;-85
2022/03/30 04:42:35;;;;;;;1.83;0.90;;;5.10;99.90;;;;;;5045499;28;20058;-85
2022/03/30 04:45:01;;;;;;;1.25;0.90;;;5.00;99.90;;;;;;5047972;28;20028;-85
2022/03/30 04:47:32;;;;;;;0.88;0.80;;;4.90;99.90;;;;;;5054529;28;20052;-84
2022/03/30 04:50:01;;;;;;;1.95;0.70;;;4.90;99.90;;;;;;5049099;28;20190;-85
2022/03/30 04:52:27;;;;;;;3.30;0.90;;;4.90;99.90;;;;;;5039383;28;20036;-83
2022/03/30 04:55:02;;;;;;;3.70;1.05;;;4.70;99.90;;;;;;5050299;28;20082;-85
2022/03/30 04:57:54;;;;;;;1.63;0.80;;;4.70;99.90;;;;;;5038921;28;20037;-85
2022/03/30 05:00:20;;;;;;;1.88;0.90;;;4.70;99.90;;;;;;5039144;28;20040;-85
2022/03/30 05:02:45;;;;;;;2.35;1.00;;;4.60;99.90;;;;;;5052182;28;20419;-85
2022/03/30 05:05:15;;;;;;;1.55;1.10;;;4.60;99.90;;;;;;5039805;28;20056;-84
2022/03/30 05:07:44;;;;;;;6.53;1.20;;;4.60;99.90;;;;;;5040133;28;20063;-85
2022/03/30 05:10:17;;;;;;;2.22;1.15;;;4.50;99.90;;;;;;5039547;28;20040;-85
2022/03/30 05:12:48;;;;;;;3.05;1.35;;;4.60;99.90;;;;;;5056394;28;20043;-84
2022/03/30 05:15:20;;;;;;;2.10;0.98;;;4.50;99.90;;;;;;5039049;28;20037;-85
2022/03/30 05:17:49;;;;;;;2.25;1.00;;;4.40;99.90;;;;;;5039683;28;20036;-85
2022/03/30 05:20:20;;;;;;;2.50;1.20;;;4.50;99.90;;;;;;5054751;28;20028;-86
2022/03/30 05:22:45;;;;;;;3.22;1.35;;;4.40;99.90;;;;;;5038151;28;20487;-85
2022/03/30 05:25:24;;;;;;;1.83;1.20;;;4.40;99.90;;;;;;5040540;28;20040;-86
2022/03/30 05:27:52;;;;;;;5.50;1.23;;;4.30;99.90;;;;;;5034512;28;20093;-85
2022/03/30 05:30:20;;;;;;;1.80;1.60;;;4.30;99.90;;;;;;5064533;28;20122;-85
2022/03/30 05:32:54;;;;;;;8.13;1.67;;;4.40;99.90;;;;;;5036777;28;20040;-85
2022/03/30 05:35:19;;;;;;;2.28;1.63;;;4.30;99.90;;;;;;5036611;28;22628;-85
2022/03/30 05:37:52;;;;;;;3.22;1.63;;;4.30;99.90;;;;;;5055383;28;20029;-85
2022/03/30 05:40:18;;;;;;;2.20;1.45;;;4.30;99.90;;;;;;5051498;28;20063;-85
2022/03/30 05:42:53;;;;;;;2.65;1.55;;;4.20;99.90;;;;;;5037481;28;20049;-85
2022/03/30 05:45:42;;;;;;;6.03;1.60;;;4.20;99.90;;;;;;5048117;28;20040;-85
2022/03/30 05:48:07;;;;;;;2.95;1.70;;;4.40;99.90;;;;;;5055528;28;20124;-86
2022/03/30 05:50:39;;;;;;;4.13;1.80;;;4.30;99.90;;;;;;5047215;28;20115;-85
2022/03/30 05:53:11;;;;;;;3.08;1.73;;;4.30;99.90;;;;;;5040426;28;20139;-85
2022/03/30 05:55:40;;;;;;;;;;;4.30;99.90;;;;;;5039041;28;20134;-85
2022/03/30 05:58:06;;;;;;;3.70;1.92;;;4.40;99.90;;;;;;5039539;28;20284;-85
2022/03/30 06:00:32;;;;;;;2.55;1.92;;;4.30;99.90;;;;;;5052264;28;20044;-86
2022/03/30 06:02:58;;;;;;;5.68;1.80;;;4.30;99.90;;;;;;5049323;28;20033;-86
2022/03/30 06:05:24;;;;;;;3.72;2.05;;;4.30;99.90;;;;;;5036023;28;20439;-85
2022/03/30 06:07:50;;;;;;;7.65;2.30;;;4.30;99.90;;;;;;5037291;28;20167;-85
2022/03/30 06:10:23;;;;;;;4.50;2.28;;;4.40;99.90;;;;;;5036846;28;20127;-85
2022/03/30 06:12:48;;;;;;;4.38;2.15;;;4.50;99.90;;;;;;5055887;28;20074;-84
2022/03/30 06:15:20;;;;;;;3.88;2.20;;;4.50;99.90;;;;;;5052870;28;20099;-85
2022/03/30 06:18:02;;;;;;;2.90;2.00;;;4.40;99.90;;;;;;5057854;28;20048;-86
2022/03/30 06:20:31;;;;;;;2.80;2.30;;;4.60;99.90;;;;;;5040655;28;20040;-86
2022/03/30 06:23:01;;;;;;;4.50;2.20;;;4.60;99.90;;;;;;5066324;28;20608;-85
2022/03/30 06:25:27;;;;;;;4.72;2.33;;;4.60;99.90;;;;;;5054894;28;20122;-86
2022/03/30 06:27:53;;;;;;;3.25;2.28;;;4.60;99.90;;;;;;5051256;28;20658;-86
2022/03/30 06:30:19;;;;;;;5.40;2.33;;;4.70;99.90;;;;;;5052497;28;20162;-85
2022/03/30 06:32:49;;;;;;;2.50;2.00;;;4.80;99.90;;;;;;5055240;28;20048;-86
2022/03/30 06:35:19;;;;;;;3.50;2.33;;;4.80;99.90;;;;;;5068833;28;20198;-84
2022/03/30 06:37:46;;;;;;;2.83;2.20;;;4.90;99.90;;;;;;5036178;28;20036;-85
2022/03/30 06:40:13;;;;;;;3.85;2.13;;;5.00;99.90;;;;;;5054850;28;20112;-85
2022/03/30 06:42:40;;;;;;;3.60;2.03;;;5.20;99.90;;;;;;5041383;28;20025;-85
2022/03/30 06:45:12;;;;;;;5.07;2.20;;;5.30;99.90;;;;;;5054824;28;20115;-86
2022/03/30 06:47:40;;;;;;;;;;;5.40;99.90;;;;;;5044807;28;20065;-85
2022/03/30 06:50:17;;;;;;;5.05;1.83;;;5.50;99.90;;;;;;5040397;28;20326;-86
2022/03/30 06:52:54;;;;;;;8.10;2.30;;;5.50;99.90;;;;;;5040963;28;20045;-85
2022/03/30 06:55:41;;;;;;;4.65;2.10;;;5.50;99.90;;;;;;5058802;28;20044;-85
2022/03/30 06:58:06;;;;;;;6.57;2.30;;;5.60;99.90;;;;;;5056582;28;20113;-86
2022/03/30 07:00:44;;;;;;;3.20;2.08;;;5.60;99.90;;;;;;5053619;28;20102;-85
2022/03/30 07:03:13;;;;;;;4.97;1.92;;;5.80;99.90;;;;;;5042090;28;20044;-85
2022/03/30 07:05:45;;;;;;;4.22;2.10;;;5.80;99.90;;;;;;5057035;28;20132;-85
2022/03/30 07:11:13;;;;;;;4.35;2.05;;;5.90;99.90;;;;;;5014725;28;20515;-86
2022/03/30 07:13:41;;;;;;;7.63;2.40;;;6.10;99.90;;;;;;5057330;28;20334;-85
2022/03/30 07:16:13;;;;;;;6.88;2.30;;;6.10;99.90;;;;;;5040994;28;20028;-85
2022/03/30 07:18:38;;;;;;;7.20;2.28;;;6.30;99.90;;;;;;5053873;28;20028;-84
2022/03/30 07:21:10;;;;;;;5.95;2.17;;;6.20;99.90;;;;;;5056708;28;20469;-86
2022/03/30 07:23:35;;;;;;;6.50;2.20;;;6.20;99.90;;;;;;5073164;28;20129;-86
2022/03/30 07:26:06;;;;;;;7.10;2.65;;;6.40;99.90;;;;;;5055203;28;20033;-85
2022/03/30 07:28:37;;;;;;;4.65;2.00;;;6.30;99.90;;;;;;5054701;28;20033;-85
2022/03/30 07:31:05;;;;;;;8.73;2.60;;;6.30;99.90;;;;;;5057237;28;20078;-86
2022/03/30 07:33:33;;;;;;;8.35;2.60;;;6.50;99.90;;;;;;5071149;28;20045;-86
2022/03/30 07:36:04;;;;;;;5.00;2.33;;;6.40;99.90;;;;;;5040894;28;20047;-86
2022/03/30 07:38:31;;;;;;;10.20;2.40;;;6.60;99.90;;;;;;5054945;28;20035;-85
2022/03/30 07:41:00;;;;;;;7.15;2.30;;;6.60;99.90;;;;;;5072782;28;20028;-85
2022/03/30 07:43:28;;;;;;;4.05;2.15;;;6.50;99.90;;;;;;5042993;28;20052;-85
2022/03/30 07:45:54;;;;;;;4.10;2.10;;;6.40;99.90;;;;;;5039887;28;20046;-85
2022/03/30 07:48:23;;;;;;;5.03;2.15;;;6.50;99.90;;;;;;5057749;28;20036;-85
2022/03/30 07:50:52;;;;;;;5.78;2.70;;;6.80;99.90;;;;;;5037475;28;20832;-86
2022/03/30 07:53:18;;;;;;;8.18;3.42;;;7.00;99.90;;;;;;5037299;28;20552;-85
2022/03/30 07:55:44;;;;;;;6.57;3.30;;;6.90;29.60;;;;;;5040181;28;20348;-85
2022/03/30 07:58:12;;;;;;;6.30;3.13;;;7.10;99.90;;;;;;5040354;28;20498;-85
2022/03/30 08:00:44;;;;;;;4.45;3.00;;;7.30;99.90;;;;;;5052978;28;20079;-86
2022/03/30 08:03:34;;;;;;;4.82;3.42;;;7.50;93.60;;;;;;5057750;28;20040;-85
2022/03/30 08:06:03;;;;;;;5.40;2.92;;;7.50;1.00;;;;;;5055156;28;20162;-85
2022/03/30 08:08:34;;;;;;;4.78;2.47;;;7.40;99.90;;;;;;5042579;28;20502;-85
2022/03/30 08:11:00;;;;;;;3.70;2.50;;;7.60;99.90;;;;;;5040733;28;20110;-86
2022/03/30 08:13:28;;;;;;;3.97;2.70;;;7.50;99.90;;;;;;5058151;28;20437;-86
2022/03/30 08:15:54;;;;;;;6.38;2.63;;;7.60;99.90;;;;;;5071190;28;20471;-85
2022/03/30 08:18:21;;;;;;;5.97;2.92;;;7.50;99.90;;;;;;5053959;28;20036;-86
2022/03/30 08:23:31;;;;;;;5.32;2.30;;;7.60;99.90;;;;;;5056249;28;20033;-85
2022/03/30 08:25:59;;;;;;;4.70;3.00;;;7.30;99.90;;;;;;5056195;28;20078;-86
2022/03/30 08:28:37;;;;;;;5.80;2.90;;;7.50;99.90;;;;;;5043844;28;20476;-86
2022/03/30 08:31:02;;;;;;;5.25;3.40;;;7.40;99.90;;;;;;5038946;28;20366;-84
2022/03/30 08:33:33;;;;;;;4.93;3.50;;;7.20;99.90;;;;;;5054022;28;20458;-84
2022/03/30 08:36:02;;;;;;;5.97;4.03;;;6.90;99.90;;;;;;5036017;28;20036;-84
2022/03/30 08:38:28;;;;;;;6.82;3.83;;;6.80;99.90;;;;;;5051348;28;20094;-84
2022/03/30 08:40:57;;;;;;;7.43;3.63;;;6.90;99.90;;;;;;5039581;28;20100;-83
2022/03/30 08:43:30;;;;;;;5.05;3.85;;;6.70;1.00;;;;;;5057004;28;20029;-84
2022/03/30 08:46:02;;;;;;;7.13;3.85;;;6.40;70.80;;;;;;5049289;28;20028;-84
2022/03/30 08:48:31;;;;;;;7.13;3.85;;;6.50;1.00;;;;;;5046781;28;20491;-84
2022/03/30 08:51:01;;;;;;;4.85;3.25;;;6.20;64.30;;;;;;5038963;28;20571;-84
2022/03/30 08:53:35;;;;;;;6.45;2.60;;;6.40;99.90;;;;;;5061774;28;20039;-84
2022/03/30 08:56:01;;;;;;;3.63;2.17;;;6.50;70.80;;;;;;5037749;28;20037;-84
2022/03/30 08:58:39;;;;;;;7.43;2.63;;;6.60;99.90;;;;;;5054500;28;20446;-84
2022/03/30 09:01:11;;;;;;;5.68;1.63;;;6.60;99.90;;;;;;5055104;28;20190;-84
2022/03/30 09:03:55;;;;;;;3.55;2.53;;;6.80;1.00;;;;;;5040063;28;20041;-84
2022/03/30 09:06:50;;;;;;;6.10;2.50;;;6.80;1.00;;;;;;5048181;28;20056;-84
2022/03/30 09:09:30;;;;;;;5.63;2.42;;;7.00;1.00;;;;;;5039575;28;20091;-84
2022/03/30 09:11:57;;;;;;;7.40;2.38;;;7.10;1.00;;;;;;5039265;28;20037;-84
2022/03/30 09:14:32;;;;;;;7.22;1.90;;;6.70;1.00;;;;;;5052987;28;20072;-83
2022/03/30 09:17:03;;;;;;;8.52;2.78;;;6.50;99.90;;;;;;5051714;28;20036;-82
2022/03/30 09:19:36;;;;;;;6.85;2.63;;;6.50;1.00;;;;;;5054720;28;20075;-83
2022/03/30 09:22:15;;;;;;;7.47;2.58;;;6.60;99.90;;;;;;5062422;28;20029;-84
2022/03/30 09:24:41;;;;;;;6.30;2.40;;;6.80;99.90;;;;;;5046446;28;20075;-83
2022/03/30 09:27:10;;;;;;;4.15;2.17;;;7.00;99.90;;;;;;5048912;28;20048;-84
2022/03/30 09:29:39;;;;;;;6.65;2.03;;;7.40;1.70;;;;;;5040103;28;20036;-83
2022/03/30 09:32:06;;;;;;;4.88;1.98;;;7.50;1.00;;;;;;5052957;28;20040;-84
2022/03/30 09:34:34;;;;;;;5.45;2.00;;;7.30;99.90;;;;;;5039454;28;20145;-84
2022/03/30 09:37:01;;;;;;;5.30;1.83;;;7.30;99.90;;;;;;5033766;28;20064;-83
2022/03/30 09:39:32;;;;;;;4.55;1.58;;;7.40;1.00;;;;;;5053838;28;20051;-83
2022/03/30 09:41:59;;;;;;;3.50;1.40;;;7.90;99.90;;;;;;5054332;28;20483;-83
2022/03/30 09:44:29;;;;;;;6.63;1.25;;;8.00;1.00;;;;;;5039730;28;20353;-83
2022/03/30 09:47:03;;;;;;;3.67;1.40;;;7.90;99.90;;;;;;5064219;28;20041;-84
2022/03/30 09:49:45;;;;;;;3.72;1.48;;;8.10;1.00;;;;;;5053899;28;20044;-83
2022/03/30 09:52:18;;;;;;;3.55;1.50;;;7.70;1.00;;;;;;5069327;28;20072;-84
2022/03/30 09:54:57;;;;;;;3.75;1.70;;;7.80;99.90;;;;;;5039246;28;20124;-83
2022/03/30 09:57:38;;;;;;;4.95;1.98;;;7.50;99.90;;;;;;5069199;28;20044;-83
2022/03/30 10:00:17;;;;;;;4.47;1.70;;;7.70;99.90;;;;;;5038957;28;20491;-82
2022/03/30 10:02:51;;;;;;;3.35;1.50;;;7.90;1.00;;;;;;5039080;28;20033;-84
2022/03/30 10:05:22;;;;;;;9.07;1.80;;;8.10;99.90;;;;;;5067931;28;20059;-83
2022/03/30 10:07:52;;;;;;;4.32;1.75;;;8.30;99.90;;;;;;5038039;28;20287;-84
2022/03/30 10:10:19;;;;;;;3.83;1.48;;;8.30;99.90;;;;;;5039413;28;20068;-84
2022/03/30 10:12:49;;;;;;;2.95;1.33;;;8.50;99.90;;;;;;5037597;28;20206;-82
2022/03/30 10:15:17;;;;;;;5.80;1.70;;;8.60;99.90;;;;;;5033472;28;20063;-84
2022/03/30 10:17:43;;;;;;;3.38;1.60;;;8.70;99.90;;;;;;5057510;28;20072;-84
2022/03/30 10:20:10;;;;;;;3.33;1.60;;;8.80;99.90;;;;;;5057164;28;20323;-84
2022/03/30 10:23:20;;;;;;;8.23;1.80;;;8.90;99.90;;;;;;5052508;28;20040;-83
2022/03/30 10:26:28;;;;;;;4.53;2.10;;;9.10;99.90;;;;;;5058742;28;20036;-84
2022/03/30 10:29:05;;;;;;;4.45;1.52;;;9.00;99.90;;;;;;4994561;28;20052;-83
2022/03/30 10:31:31;;;;;;;7.18;1.80;;;8.70;99.90;;;;;;5058776;28;20055;-84
2022/03/30 10:33:57;;;;;;;8.40;2.10;;;9.00;99.90;;;;;;5041414;28;20037;-83
2022/03/30 10:36:30;;;;;;;6.75;2.03;;;9.20;99.90;;;;;;5040712;28;20086;-84
2022/03/30 10:39:15;;;;;;;4.20;1.77;;;9.30;99.90;;;;;;5058170;28;20052;-84
2022/03/30 10:41:57;;;;;;;4.38;1.80;;;9.10;99.90;;;;;;5059103;28;20032;-84
2022/03/30 10:44:49;;;;;;;5.43;1.73;;;9.50;99.90;;;;;;5040525;28;20044;-84
2022/03/30 10:47:23;;;;;;;6.82;1.60;;;8.90;1.00;;;;;;5051083;28;20032;-84
2022/03/30 10:49:57;;;;;;;3.83;1.60;;;9.40;12.00;;;;;;5041174;28;20556;-84
2022/03/30 10:52:35;;;;;;;5.30;1.80;;;9.60;1.00;;;;;;5040320;28;20374;-84
2022/03/30 10:55:16;;;;;;;6.40;1.88;;;9.50;1.00;;;;;;5040554;28;20090;-83
2022/03/30 10:57:53;;;;;;;3.95;1.70;;;9.50;99.90;;;;;;5057972;28;20347;-84
2022/03/30 11:00:36;;;;;;;5.10;1.50;;;9.40;1.00;;;;;;5049118;28;20040;-84
2022/03/30 11:03:21;;;;;;;5.18;1.77;;;9.80;1.00;;;;;;5040738;28;20127;-84
2022/03/30 11:06:13;;;;;;;5.03;1.85;;;9.90;99.90;;;;;;5062921;28;20049;-84
2022/03/30 11:08:39;;;;;;;3.75;1.40;;;9.70;1.00;;;;;;5049043;28;20492;-84
2022/03/30 11:11:50;;;;;;;3.28;1.50;;;9.70;1.00;;;;;;5037838;28;20063;-84
2022/03/30 11:14:39;;;;;;;4.30;1.52;;;9.10;1.00;;;;;;5054856;28;20513;-84
2022/03/30 11:17:12;;;;;;;4.97;1.90;;;8.40;1.00;;;;;;5056835;28;20040;-84
2022/03/30 11:19:47;;;;;;;3.70;1.23;;;7.60;99.90;;;;;;5048898;28;20052;-84
2022/03/30 11:22:16;;;;;;;;;;;7.80;99.90;;;;;;5053392;28;20044;-84
2022/03/30 11:25:09;;;;;;;4.95;1.60;;;7.90;99.90;;;;;;5039257;28;20021;-84
2022/03/30 11:27:38;;;;;;;3.45;1.60;;;8.20;67.50;;;;;;5057201;28;20368;-84
2022/03/30 11:30:17;;;;;;;12.05;1.90;;;8.50;49.90;;;;;;5039622;28;20048;-84
2022/03/30 11:32:58;;;;;;;4.20;1.60;;;8.60;2.20;;;;;;5057317;28;20060;-84
2022/03/30 11:35:32;;;;;;;4.57;1.40;;;9.00;1.00;;;;;;5055379;28;20041;-84
2022/03/30 11:38:42;;;;;;;5.50;1.42;;;9.30;1.00;;;;;;5055575;28;20113;-84
2022/03/30 11:41:15;;;;;;;5.28;1.58;;;9.10;1.00;;;;;;5036105;28;20044;-84
2022/03/30 11:46:32;;;;;;;6.20;1.60;;;8.80;99.90;;;;;;5052562;28;20109;-84
2022/03/30 11:49:06;;;;;;;3.38;1.30;;;8.80;99.90;;;;;;5039041;28;20116;-84
2022/03/30 11:51:36;;;;;;;2.22;1.05;;;8.90;1.00;;;;;;5049213;28;20491;-84
2022/03/30 11:54:17;;;;;;;5.65;1.48;;;9.30;1.00;;;;;;5058021;28;20400;-84
2022/03/30 11:56:46;;;;;;;5.03;1.38;;;9.70;1.00;;;;;;5053429;28;20032;-84
2022/03/30 11:59:12;;;;;;;3.88;1.13;;;8.40;99.90;;;;;;5048140;28;20037;-84
2022/03/30 12:01:38;;;;;;;2.88;1.25;;;9.00;99.90;;;;;;5051131;28;20043;-85
2022/03/30 12:04:06;;;;;;;4.22;1.17;;;9.40;99.90;;;;;;5039207;28;20272;-84
2022/03/30 12:06:34;;;;;;;5.45;1.63;;;9.40;99.90;;;;;;5051636;28;20536;-84
2022/03/30 12:09:02;;;;;;;5.97;1.60;;;9.30;99.90;;;;;;5052189;28;20380;-84
2022/03/30 12:11:35;;;;;;;4.78;1.20;;;9.10;99.90;;;;;;5054031;28;20075;-84
2022/03/30 12:14:01;;;;;;;4.85;1.45;;;8.90;99.90;;;;;;5048160;28;20124;-85
2022/03/30 12:16:27;;;;;;;1.65;0.98;;;8.50;99.90;;;;;;5038499;28;20021;-84
2022/03/30 12:18:56;;;;;;;2.58;1.13;;;8.50;99.90;;;;;;5062304;28;20473;-84
2022/03/30 12:21:41;;;;;;;2.83;1.35;;;9.40;99.90;;;;;;5038180;28;20471;-84
2022/03/30 12:24:10;;;;;;;5.63;1.05;;;9.90;99.90;;;;;;5034432;28;20059;-84
2022/03/30 12:26:37;;;;;;;3.22;1.15;;;10.70;99.90;;;;;;5055637;28;20033;-84
2022/03/30 12:29:08;;;;;;;3.53;1.20;;;10.70;99.90;;;;;;5053337;28;20082;-84
2022/03/30 12:31:36;;;;;;;2.92;1.10;;;10.70;99.90;;;;;;5038239;28;20135;-84
2022/03/30 12:34:13;;;;;;;3.92;1.17;;;10.40;99.90;;;;;;5053743;28;20181;-84
2022/03/30 12:36:50;;;;;;;5.35;1.10;;;10.40;99.90;;;;;;5068537;28;20035;-85
2022/03/30 12:39:20;;;;;;;4.43;1.77;;;10.60;99.90;;;;;;5047382;28;20123;-84
2022/03/30 12:42:25;;;;;;;3.38;1.00;;;11.60;99.90;;;;;;5038095;28;20084;-84
2022/03/30 12:44:54;;;;;;;3.22;0.85;;;11.50;99.90;;;;;;5043898;28;20052;-85
2022/03/30 12:47:34;;;;;;;3.97;1.00;;;11.50;99.90;;;;;;5068086;28;20029;-85
2022/03/30 12:50:16;;;;;;;4.75;1.30;;;11.90;99.90;;;;;;5039093;28;20033;-85
2022/03/30 12:52:49;;;;;;;3.70;1.15;;;11.80;99.90;;;;;;5056546;28;20054;-83
2022/03/30 12:55:24;;;;;;;4.13;1.25;;;9.70;99.90;;;;;;5056168;28;20455;-84
2022/03/30 12:58:18;;;;;;;3.72;1.30;;;9.30;99.90;;;;;;5039805;28;20086;-84
2022/03/30 13:00:52;;;;;;;6.18;1.40;;;9.70;99.90;;;;;;5040773;28;20434;-84
2022/03/30 13:03:19;;;;;;;3.72;1.30;;;9.00;99.90;;;;;;5049810;28;20484;-85
2022/03/30 13:06:00;;;;;;;3.42;1.30;;;8.80;99.90;;;;;;5054342;28;20052;-84
2022/03/30 13:08:29;;;;;;;5.28;1.55;;;8.90;99.90;;;;;;5052729;28;20200;-84
2022/03/30 13:11:02;;;;;;;3.78;1.10;;;9.30;99.90;;;;;;5038173;28;20508;-84
2022/03/30 13:13:51;;;;;;;2.83;1.23;;;10.20;99.90;;;;;;5039642;28;20424;-84
2022/03/30 13:16:18;;;;;;;4.32;1.17;;;10.90;99.90;;;;;;5038774;28;20555;-84
2022/03/30 13:19:07;;;;;;;3.33;1.20;;;11.00;99.90;;;;;;5050647;28;20037;-84
2022/03/30 13:21:47;;;;;;;2.53;1.30;;;11.40;99.90;;;;;;5054553;28;20041;-84
2022/03/30 13:24:17;;;;;;;4.28;1.50;;;11.40;99.90;;;;;;5037996;28;20141;-85